Adapazari, Turkey

5:39 AM EEST on July 26, 2016 (GMT +0300)
Sapanca Merkez | | Change Station

Elev 154 ft 40.69 °N, 30.27 °E | Updated 9 minutes ago

Clear
Clear
69.1 °F
Feels Like 69.1 °F
N
0.0
Wind Variable Wind from North
Gusts 0.7 mph

Today
High -- | Low -- °F
--% Chance of Precip.
Yesterday
High -- | Low -- °F
Precip. -- in
Pressure 29.89 in
Visibility -9999.0 miles
Clouds
Dew Point 65 °F
Humidity 87%
Rainfall 0.00 in
Snow Depth Not available.
5:49 AM 8:19 PM
Waning Gibbous, 60% visible
METAR LTBR 260220Z 00000KT CAVOK 15/14 Q1012 NOSIG RMK RWY07 00000KT
Pressure 29.89 in
Visibility -9999.0 miles
Clouds
Dew Point 65 °F
Humidity 87%
Rainfall 0.00 in
Snow Depth Not available.
5:49 AM 8:19 PM
Waning Gibbous, 60% visible
METAR LTBR 260220Z 00000KT CAVOK 15/14 Q1012 NOSIG RMK RWY07 00000KT

10-Day Weather Forecast

×

Almanac

Astronomy

Jul. 26, 2016 Rise Set
Actual Time
Civil Twilight
Nautical Twilight
Astronomical Twilight
Moon
Length of Visible Light
Length of Day
Tomorrow will be .
, % of the Moon is Illuminated

Today's Extremes

Country Highs Country Lows

Community

WunderPhotos

Upload Photos

1,927,505 photos uploaded!

WunderBlog® & News

Nearby

Air Quality

  Air Quality AQ Index Pollutant
Not available.

Snow Depth

Station Depth Elevation

Earthquake Activity

City Distance Mag. Time & Date
Minimum magnitude displayed is 2.5.

Coastal Water Temperatures

Place Temperature

Stations

Nearby Weather Stations

Station Location Temp. Windchill Dew Point Humidity Wind Precip. Elev Updated Type